sensor_id;sensor_type;location;lat;lon;timestamp;pressure;altitude;pressure_sealevel;temperature
30765;BMP180;494;48.744;10.106;2022-10-16T00:01:53;95685.00;;;17.20
30765;BMP180;494;48.744;10.106;2022-10-16T00:04:22;95209.00;;;16.40
30765;BMP180;494;48.744;10.106;2022-10-16T00:06:51;95750.00;;;15.10
30765;BMP180;494;48.744;10.106;2022-10-16T00:09:19;95532.00;;;15.80
30765;BMP180;494;48.744;10.106;2022-10-16T00:11:48;95478.00;;;15.30
30765;BMP180;494;48.744;10.106;2022-10-16T00:14:17;95385.00;;;17.20
30765;BMP180;494;48.744;10.106;2022-10-16T00:16:46;95388.00;;;16.10
30765;BMP180;494;48.744;10.106;2022-10-16T00:19:16;95601.00;;;16.30
30765;BMP180;494;48.744;10.106;2022-10-16T00:21:44;94972.00;;;15.50
30765;BMP180;494;48.744;10.106;2022-10-16T00:24:13;95470.00;;;15.20
30765;BMP180;494;48.744;10.106;2022-10-16T00:26:42;94955.00;;;16.50
30765;BMP180;494;48.744;10.106;2022-10-16T00:29:11;95589.00;;;16.30
30765;BMP180;494;48.744;10.106;2022-10-16T00:31:39;95660.00;;;16.30
30765;BMP180;494;48.744;10.106;2022-10-16T00:34:08;95766.00;;;15.60
30765;BMP180;494;48.744;10.106;2022-10-16T00:36:38;94958.00;;;16.10
30765;BMP180;494;48.744;10.106;2022-10-16T00:39:07;95101.00;;;16.60
30765;BMP180;494;48.744;10.106;2022-10-16T00:41:36;95038.00;;;14.50
30765;BMP180;494;48.744;10.106;2022-10-16T00:44:47;95598.00;;;16.60
30765;BMP180;494;48.744;10.106;2022-10-16T00:47:22;95485.00;;;15.50
30765;BMP180;494;48.744;10.106;2022-10-16T00:50:00;95633.00;;;16.60
30765;BMP180;494;48.744;10.106;2022-10-16T00:52:30;95516.00;;;15.80
30765;BMP180;494;48.744;10.106;2022-10-16T00:55:00;95708.00;;;15.30
30765;BMP180;494;48.744;10.106;2022-10-16T00:57:30;95638.00;;;16.40
30765;BMP180;494;48.744;10.106;2022-10-16T01:00:02;95664.00;;;16.50
30765;BMP180;494;48.744;10.106;2022-10-16T01:02:31;95169.00;;;16.00
30765;BMP180;494;48.744;10.106;2022-10-16T01:05:00;95552.00;;;14.80
30765;BMP180;494;48.744;10.106;2022-10-16T01:07:41;94825.00;;;15.60
30765;BMP180;494;48.744;10.106;2022-10-16T01:10:27;95179.00;;;16.50
30765;BMP180;494;48.744;10.106;2022-10-16T01:13:05;95645.00;;;15.30
30765;BMP180;494;48.744;10.106;2022-10-16T01:15:42;95396.00;;;16.50
30765;BMP180;494;48.744;10.106;2022-10-16T01:18:21;95697.00;;;14.80
30765;BMP180;494;48.744;10.106;2022-10-16T01:20:58;95212.00;;;15.10
30765;BMP180;494;48.744;10.106;2022-10-16T01:23:40;95614.00;;;13.90
30765;BMP180;494;48.744;10.106;2022-10-16T01:29:09;95735.00;;;16.00
30765;BMP180;494;48.744;10.106;2022-10-16T01:31:52;94882.00;;;16.40
30765;BMP180;494;48.744;10.106;2022-10-16T01:34:33;94873.00;;;16.30
30765;BMP180;494;48.744;10.106;2022-10-16T01:37:09;95748.00;;;14.60
30765;BMP180;494;48.744;10.106;2022-10-16T01:39:42;95793.00;;;15.20
30765;BMP180;494;48.744;10.106;2022-10-16T01:42:20;95702.00;;;15.90
30765;BMP180;494;48.744;10.106;2022-10-16T01:44:53;95477.00;;;16.20
30765;BMP180;494;48.744;10.106;2022-10-16T01:47:25;95601.00;;;15.10
30765;BMP180;494;48.744;10.106;2022-10-16T01:49:57;95586.00;;;16.00
30765;BMP180;494;48.744;10.106;2022-10-16T01:52:29;95622.00;;;15.80
30765;BMP180;494;48.744;10.106;2022-10-16T01:55:01;95614.00;;;14.10
30765;BMP180;494;48.744;10.106;2022-10-16T01:57:32;95723.00;;;15.90
30765;BMP180;494;48.744;10.106;2022-10-16T02:00:10;95691.00;;;15.90
30765;BMP180;494;48.744;10.106;2022-10-16T02:02:40;95689.00;;;14.70
30765;BMP180;494;48.744;10.106;2022-10-16T02:05:16;95690.00;;;15.90
30765;BMP180;494;48.744;10.106;2022-10-16T02:07:47;95799.00;;;15.90
30765;BMP180;494;48.744;10.106;2022-10-16T02:10:17;95758.00;;;15.90
30765;BMP180;494;48.744;10.106;2022-10-16T02:12:53;95582.00;;;15.90
30765;BMP180;494;48.744;10.106;2022-10-16T02:15:25;95221.00;;;16.00
30765;BMP180;494;48.744;10.106;2022-10-16T02:17:54;95781.00;;;15.90
30765;BMP180;494;48.744;10.106;2022-10-16T02:20:32;95237.00;;;15.90
30765;BMP180;494;48.744;10.106;2022-10-16T02:23:03;95008.00;;;15.90
30765;BMP180;494;48.744;10.106;2022-10-16T02:25:37;95678.00;;;15.90
30765;BMP180;494;48.744;10.106;2022-10-16T02:28:15;95520.00;;;15.90
30765;BMP180;494;48.744;10.106;2022-10-16T02:30:52;95302.00;;;14.70
30765;BMP180;494;48.744;10.106;2022-10-16T02:33:25;94669.00;;;14.30
30765;BMP180;494;48.744;10.106;2022-10-16T02:35:55;95542.00;;;14.80
30765;BMP180;494;48.744;10.106;2022-10-16T02:38:26;95524.00;;;14.40
30765;BMP180;494;48.744;10.106;2022-10-16T02:40:55;95388.00;;;13.10
30765;BMP180;494;48.744;10.106;2022-10-16T02:43:25;95254.00;;;15.20
30765;BMP180;494;48.744;10.106;2022-10-16T02:45:55;94845.00;;;16.10
30765;BMP180;494;48.744;10.106;2022-10-16T02:48:24;95556.00;;;14.50
30765;BMP180;494;48.744;10.106;2022-10-16T02:50:52;95528.00;;;15.20
30765;BMP180;494;48.744;10.106;2022-10-16T02:53:21;95522.00;;;16.00
30765;BMP180;494;48.744;10.106;2022-10-16T02:55:49;95621.00;;;15.70
30765;BMP180;494;48.744;10.106;2022-10-16T02:58:18;95558.00;;;15.40
30765;BMP180;494;48.744;10.106;2022-10-16T03:00:47;95665.00;;;14.60
30765;BMP180;494;48.744;10.106;2022-10-16T03:03:17;95740.00;;;16.00
30765;BMP180;494;48.744;10.106;2022-10-16T03:05:45;95804.00;;;16.00
30765;BMP180;494;48.744;10.106;2022-10-16T03:08:14;95775.00;;;14.30
30765;BMP180;494;48.744;10.106;2022-10-16T03:10:42;95813.00;;;15.90
30765;BMP180;494;48.744;10.106;2022-10-16T03:13:11;95792.00;;;15.50
30765;BMP180;494;48.744;10.106;2022-10-16T03:15:40;95818.00;;;16.10
30765;BMP180;494;48.744;10.106;2022-10-16T03:18:08;95495.00;;;15.90
30765;BMP180;494;48.744;10.106;2022-10-16T03:20:38;95813.00;;;15.00
30765;BMP180;494;48.744;10.106;2022-10-16T03:23:07;95595.00;;;14.60
30765;BMP180;494;48.744;10.106;2022-10-16T03:25:36;95145.00;;;15.80
30765;BMP180;494;48.744;10.106;2022-10-16T03:28:05;95798.00;;;15.80
30765;BMP180;494;48.744;10.106;2022-10-16T03:30:33;95270.00;;;15.80
30765;BMP180;494;48.744;10.106;2022-10-16T03:33:02;94912.00;;;15.70
30765;BMP180;494;48.744;10.106;2022-10-16T03:35:31;95554.00;;;14.30
30765;BMP180;494;48.744;10.106;2022-10-16T03:38:02;95570.00;;;14.40
30765;BMP180;494;48.744;10.106;2022-10-16T03:40:30;95272.00;;;15.40
30765;BMP180;494;48.744;10.106;2022-10-16T03:42:59;95547.00;;;15.20
30765;BMP180;494;48.744;10.106;2022-10-16T03:45:28;95470.00;;;14.10
30765;BMP180;494;48.744;10.106;2022-10-16T03:47:57;95733.00;;;15.50
30765;BMP180;494;48.744;10.106;2022-10-16T03:50:25;95586.00;;;15.20
30765;BMP180;494;48.744;10.106;2022-10-16T03:52:54;95038.00;;;14.70
30765;BMP180;494;48.744;10.106;2022-10-16T03:55:24;95679.00;;;15.50
30765;BMP180;494;48.744;10.106;2022-10-16T03:57:52;95743.00;;;14.80
30765;BMP180;494;48.744;10.106;2022-10-16T04:00:21;95053.00;;;15.70
30765;BMP180;494;48.744;10.106;2022-10-16T04:02:49;95393.00;;;15.70
30765;BMP180;494;48.744;10.106;2022-10-16T04:05:18;95134.00;;;15.70
30765;BMP180;494;48.744;10.106;2022-10-16T04:07:47;95399.00;;;15.90
30765;BMP180;494;48.744;10.106;2022-10-16T04:10:15;94987.00;;;16.00
30765;BMP180;494;48.744;10.106;2022-10-16T04:12:45;95332.00;;;14.80
30765;BMP180;494;48.744;10.106;2022-10-16T04:15:14;95533.00;;;16.10
30765;BMP180;494;48.744;10.106;2022-10-16T04:17:43;95640.00;;;15.30
30765;BMP180;494;48.744;10.106;2022-10-16T04:20:11;95768.00;;;14.70
30765;BMP180;494;48.744;10.106;2022-10-16T04:22:40;95284.00;;;16.20
30765;BMP180;494;48.744;10.106;2022-10-16T04:25:09;95517.00;;;14.90
30765;BMP180;494;48.744;10.106;2022-10-16T04:27:38;95475.00;;;15.50
30765;BMP180;494;48.744;10.106;2022-10-16T04:30:14;95705.00;;;15.90
30765;BMP180;494;48.744;10.106;2022-10-16T04:32:42;95492.00;;;15.40
30765;BMP180;494;48.744;10.106;2022-10-16T04:35:11;95443.00;;;14.70
30765;BMP180;494;48.744;10.106;2022-10-16T04:37:40;95557.00;;;15.20
30765;BMP180;494;48.744;10.106;2022-10-16T04:40:09;95716.00;;;15.90
30765;BMP180;494;48.744;10.106;2022-10-16T04:42:37;95733.00;;;15.90
30765;BMP180;494;48.744;10.106;2022-10-16T04:45:07;95584.00;;;15.90
30765;BMP180;494;48.744;10.106;2022-10-16T04:47:42;95732.00;;;15.50
30765;BMP180;494;48.744;10.106;2022-10-16T04:50:11;95685.00;;;16.00
30765;BMP180;494;48.744;10.106;2022-10-16T04:52:39;95718.00;;;15.80
30765;BMP180;494;48.744;10.106;2022-10-16T04:55:08;95724.00;;;15.70
30765;BMP180;494;48.744;10.106;2022-10-16T04:57:37;95707.00;;;15.50
30765;BMP180;494;48.744;10.106;2022-10-16T05:00:06;95787.00;;;15.60
30765;BMP180;494;48.744;10.106;2022-10-16T05:02:36;95657.00;;;15.60
30765;BMP180;494;48.744;10.106;2022-10-16T05:05:07;95725.00;;;15.70
30765;BMP180;494;48.744;10.106;2022-10-16T05:07:36;95222.00;;;15.80
30765;BMP180;494;48.744;10.106;2022-10-16T05:10:05;95724.00;;;15.70
30765;BMP180;494;48.744;10.106;2022-10-16T05:12:34;95673.00;;;14.50
30765;BMP180;494;48.744;10.106;2022-10-16T05:15:03;95811.00;;;15.80
30765;BMP180;494;48.744;10.106;2022-10-16T05:17:32;95758.00;;;15.20
30765;BMP180;494;48.744;10.106;2022-10-16T05:20:01;95800.00;;;14.30
30765;BMP180;494;48.744;10.106;2022-10-16T05:22:31;95648.00;;;15.60
30765;BMP180;494;48.744;10.106;2022-10-16T05:25:00;95671.00;;;15.00
30765;BMP180;494;48.744;10.106;2022-10-16T05:27:29;95809.00;;;15.00
30765;BMP180;494;48.744;10.106;2022-10-16T05:29:57;95627.00;;;15.00
30765;BMP180;494;48.744;10.106;2022-10-16T05:32:26;95563.00;;;15.00
30765;BMP180;494;48.744;10.106;2022-10-16T05:34:54;95492.00;;;15.70
30765;BMP180;494;48.744;10.106;2022-10-16T05:37:23;95753.00;;;14.20
30765;BMP180;494;48.744;10.106;2022-10-16T05:39:53;95819.00;;;15.50
30765;BMP180;494;48.744;10.106;2022-10-16T05:42:28;95711.00;;;15.90
30765;BMP180;494;48.744;10.106;2022-10-16T05:45:09;95493.00;;;16.00
30765;BMP180;494;48.744;10.106;2022-10-16T05:47:38;95563.00;;;13.60
30765;BMP180;494;48.744;10.106;2022-10-16T05:50:08;95667.00;;;15.90
30765;BMP180;494;48.744;10.106;2022-10-16T05:52:37;95742.00;;;15.90
30765;BMP180;494;48.744;10.106;2022-10-16T05:55:08;95085.00;;;15.90
30765;BMP180;494;48.744;10.106;2022-10-16T05:57:37;95759.00;;;16.00
30765;BMP180;494;48.744;10.106;2022-10-16T06:00:07;95867.00;;;15.90
30765;BMP180;494;48.744;10.106;2022-10-16T06:02:35;95593.00;;;13.80
30765;BMP180;494;48.744;10.106;2022-10-16T06:05:05;95147.00;;;16.00
30765;BMP180;494;48.744;10.106;2022-10-16T06:07:35;95558.00;;;15.20
30765;BMP180;494;48.744;10.106;2022-10-16T06:10:07;95665.00;;;16.00
30765;BMP180;494;48.744;10.106;2022-10-16T06:12:36;95922.00;;;16.20
30765;BMP180;494;48.744;10.106;2022-10-16T06:15:06;95445.00;;;16.20
30765;BMP180;494;48.744;10.106;2022-10-16T06:17:35;95825.00;;;15.40
30765;BMP180;494;48.744;10.106;2022-10-16T06:20:04;95877.00;;;16.40
30765;BMP180;494;48.744;10.106;2022-10-16T06:22:33;94685.00;;;15.50
30765;BMP180;494;48.744;10.106;2022-10-16T06:25:02;95832.00;;;16.50
30765;BMP180;494;48.744;10.106;2022-10-16T06:27:32;95783.00;;;16.60
30765;BMP180;494;48.744;10.106;2022-10-16T06:30:00;95711.00;;;15.80
30765;BMP180;494;48.744;10.106;2022-10-16T06:32:30;95658.00;;;15.10
30765;BMP180;494;48.744;10.106;2022-10-16T06:34:59;95462.00;;;16.50
30765;BMP180;494;48.744;10.106;2022-10-16T06:37:28;95678.00;;;15.90
30765;BMP180;494;48.744;10.106;2022-10-16T06:39:56;95695.00;;;15.50
30765;BMP180;494;48.744;10.106;2022-10-16T06:42:25;95037.00;;;16.90
30765;BMP180;494;48.744;10.106;2022-10-16T06:44:55;95788.00;;;16.80
30765;BMP180;494;48.744;10.106;2022-10-16T06:47:24;95478.00;;;16.70
30765;BMP180;494;48.744;10.106;2022-10-16T06:49:52;95692.00;;;17.10
30765;BMP180;494;48.744;10.106;2022-10-16T06:52:21;95701.00;;;17.20
30765;BMP180;494;48.744;10.106;2022-10-16T06:54:50;95888.00;;;17.10
30765;BMP180;494;48.744;10.106;2022-10-16T06:57:19;95813.00;;;17.00
30765;BMP180;494;48.744;10.106;2022-10-16T06:59:47;94954.00;;;17.00
30765;BMP180;494;48.744;10.106;2022-10-16T07:02:22;95773.00;;;16.00
30765;BMP180;494;48.744;10.106;2022-10-16T07:04:52;95865.00;;;16.40
30765;BMP180;494;48.744;10.106;2022-10-16T07:07:20;95850.00;;;16.40
30765;BMP180;494;48.744;10.106;2022-10-16T07:09:51;95666.00;;;15.90
30765;BMP180;494;48.744;10.106;2022-10-16T07:12:20;95761.00;;;16.40
30765;BMP180;494;48.744;10.106;2022-10-16T07:14:49;95656.00;;;16.90
30765;BMP180;494;48.744;10.106;2022-10-16T07:17:19;95819.00;;;18.40
30765;BMP180;494;48.744;10.106;2022-10-16T07:19:49;95705.00;;;17.80
30765;BMP180;494;48.744;10.106;2022-10-16T07:22:20;95617.00;;;17.50
30765;BMP180;494;48.744;10.106;2022-10-16T07:24:48;95653.00;;;17.30
30765;BMP180;494;48.744;10.106;2022-10-16T07:27:18;95731.00;;;18.00
30765;BMP180;494;48.744;10.106;2022-10-16T07:29:49;95793.00;;;16.80
30765;BMP180;494;48.744;10.106;2022-10-16T07:32:18;95728.00;;;17.00
30765;BMP180;494;48.744;10.106;2022-10-16T07:34:48;95527.00;;;17.70
30765;BMP180;494;48.744;10.106;2022-10-16T07:37:17;95935.00;;;16.60
30765;BMP180;494;48.744;10.106;2022-10-16T07:39:46;95362.00;;;18.20
30765;BMP180;494;48.744;10.106;2022-10-16T07:42:14;95828.00;;;17.90
30765;BMP180;494;48.744;10.106;2022-10-16T07:44:43;95965.00;;;16.70
30765;BMP180;494;48.744;10.106;2022-10-16T07:47:11;95786.00;;;17.80
30765;BMP180;494;48.744;10.106;2022-10-16T07:49:40;95746.00;;;17.80
30765;BMP180;494;48.744;10.106;2022-10-16T07:52:12;95553.00;;;15.80
30765;BMP180;494;48.744;10.106;2022-10-16T07:54:41;95336.00;;;17.10
30765;BMP180;494;48.744;10.106;2022-10-16T07:57:10;95153.00;;;15.10
30765;BMP180;494;48.744;10.106;2022-10-16T07:59:39;95943.00;;;17.00
30765;BMP180;494;48.744;10.106;2022-10-16T08:02:07;95764.00;;;17.80
30765;BMP180;494;48.744;10.106;2022-10-16T08:04:36;95737.00;;;16.70
30765;BMP180;494;48.744;10.106;2022-10-16T08:07:07;95720.00;;;15.30
30765;BMP180;494;48.744;10.106;2022-10-16T08:09:37;94985.00;;;17.60
30765;BMP180;494;48.744;10.106;2022-10-16T08:12:07;95800.00;;;16.70
30765;BMP180;494;48.744;10.106;2022-10-16T08:14:37;95828.00;;;17.90
30765;BMP180;494;48.744;10.106;2022-10-16T08:17:09;95938.00;;;18.10
30765;BMP180;494;48.744;10.106;2022-10-16T08:19:37;95161.00;;;18.30
30765;BMP180;494;48.744;10.106;2022-10-16T08:22:06;95272.00;;;18.20
30765;BMP180;494;48.744;10.106;2022-10-16T08:24:36;95872.00;;;18.70
30765;BMP180;494;48.744;10.106;2022-10-16T08:27:05;95973.00;;;19.00
30765;BMP180;494;48.744;10.106;2022-10-16T08:29:34;95904.00;;;18.20
30765;BMP180;494;48.744;10.106;2022-10-16T08:32:04;95634.00;;;19.10
30765;BMP180;494;48.744;10.106;2022-10-16T08:34:33;95736.00;;;17.50
30765;BMP180;494;48.744;10.106;2022-10-16T08:37:02;95944.00;;;19.20
30765;BMP180;494;48.744;10.106;2022-10-16T08:39:30;95927.00;;;19.30
30765;BMP180;494;48.744;10.106;2022-10-16T08:42:26;96028.00;;;17.80
30765;BMP180;494;48.744;10.106;2022-10-16T08:45:33;95911.00;;;18.80
30765;BMP180;494;48.744;10.106;2022-10-16T08:48:17;95999.00;;;16.40
30765;BMP180;494;48.744;10.106;2022-10-16T08:50:51;96013.00;;;18.60
30765;BMP180;494;48.744;10.106;2022-10-16T08:53:28;95738.00;;;18.20
30765;BMP180;494;48.744;10.106;2022-10-16T08:55:58;95564.00;;;18.70
30765;BMP180;494;48.744;10.106;2022-10-16T08:58:30;95430.00;;;18.80
30765;BMP180;494;48.744;10.106;2022-10-16T09:01:02;95622.00;;;18.90
30765;BMP180;494;48.744;10.106;2022-10-16T09:03:54;95936.00;;;19.10
30765;BMP180;494;48.744;10.106;2022-10-16T09:06:38;95129.00;;;19.10
30765;BMP180;494;48.744;10.106;2022-10-16T09:09:45;95838.00;;;19.30
30765;BMP180;494;48.744;10.106;2022-10-16T09:12:22;95279.00;;;19.40
30765;BMP180;494;48.744;10.106;2022-10-16T09:15:14;95825.00;;;17.60
30765;BMP180;494;48.744;10.106;2022-10-16T09:17:58;95557.00;;;16.40
30765;BMP180;494;48.744;10.106;2022-10-16T09:20:44;95503.00;;;19.40
30765;BMP180;494;48.744;10.106;2022-10-16T09:23:19;95935.00;;;19.50
30765;BMP180;494;48.744;10.106;2022-10-16T09:25:51;95926.00;;;18.80
30765;BMP180;494;48.744;10.106;2022-10-16T09:28:20;95325.00;;;19.60
30765;BMP180;494;48.744;10.106;2022-10-16T09:30:52;96078.00;;;19.20
30765;BMP180;494;48.744;10.106;2022-10-16T09:33:25;96010.00;;;19.50
30765;BMP180;494;48.744;10.106;2022-10-16T09:35:57;95366.00;;;19.50
30765;BMP180;494;48.744;10.106;2022-10-16T09:38:29;95936.00;;;19.60
30765;BMP180;494;48.744;10.106;2022-10-16T09:41:00;96066.00;;;17.70
30765;BMP180;494;48.744;10.106;2022-10-16T09:43:36;96079.00;;;18.90
30765;BMP180;494;48.744;10.106;2022-10-16T09:46:19;95256.00;;;19.20
30765;BMP180;494;48.744;10.106;2022-10-16T09:48:52;95750.00;;;16.90
30765;BMP180;494;48.744;10.106;2022-10-16T09:51:26;95342.00;;;20.00
30765;BMP180;494;48.744;10.106;2022-10-16T09:53:59;95435.00;;;18.80
30765;BMP180;494;48.744;10.106;2022-10-16T09:56:30;95970.00;;;20.80
30765;BMP180;494;48.744;10.106;2022-10-16T09:59:10;96197.00;;;21.70
30765;BMP180;494;48.744;10.106;2022-10-16T10:01:46;96086.00;;;19.40
30765;BMP180;494;48.744;10.106;2022-10-16T10:04:16;96038.00;;;21.50
30765;BMP180;494;48.744;10.106;2022-10-16T10:06:47;95452.00;;;22.10
30765;BMP180;494;48.744;10.106;2022-10-16T10:10:48;95634.00;;;22.80
30765;BMP180;494;48.744;10.106;2022-10-16T10:14:06;96126.00;;;20.60
30765;BMP180;494;48.744;10.106;2022-10-16T10:17:13;95953.00;;;22.70
30765;BMP180;494;48.744;10.106;2022-10-16T10:19:50;95477.00;;;20.20
30765;BMP180;494;48.744;10.106;2022-10-16T10:22:29;95556.00;;;22.30
30765;BMP180;494;48.744;10.106;2022-10-16T10:25:55;95261.00;;;21.60
30765;BMP180;494;48.744;10.106;2022-10-16T10:28:57;95681.00;;;22.30
30765;BMP180;494;48.744;10.106;2022-10-16T10:31:45;95484.00;;;22.20
30765;BMP180;494;48.744;10.106;2022-10-16T10:34:41;95796.00;;;20.70
30765;BMP180;494;48.744;10.106;2022-10-16T10:37:49;95782.00;;;22.20
30765;BMP180;494;48.744;10.106;2022-10-16T11:02:18;95297.00;;;22.60
30765;BMP180;494;48.744;10.106;2022-10-16T11:10:50;95929.00;;;23.00
30765;BMP180;494;48.744;10.106;2022-10-16T11:29:17;95582.00;;;35.30
30765;BMP180;494;48.744;10.106;2022-10-16T11:31:53;96078.00;;;34.30
30765;BMP180;494;48.744;10.106;2022-10-16T11:34:32;95911.00;;;35.90
30765;BMP180;494;48.744;10.106;2022-10-16T11:37:11;95987.00;;;36.60
30765;BMP180;494;48.744;10.106;2022-10-16T11:39:42;95982.00;;;37.20
30765;BMP180;494;48.744;10.106;2022-10-16T11:42:23;96002.00;;;37.90
30765;BMP180;494;48.744;10.106;2022-10-16T11:45:08;95532.00;;;37.70
30765;BMP180;494;48.744;10.106;2022-10-16T11:47:45;95961.00;;;38.70
30765;BMP180;494;48.744;10.106;2022-10-16T11:50:34;95940.00;;;38.60
30765;BMP180;494;48.744;10.106;2022-10-16T11:53:15;95746.00;;;38.90
30765;BMP180;494;48.744;10.106;2022-10-16T11:55:45;96040.00;;;37.60
30765;BMP180;494;48.744;10.106;2022-10-16T11:58:26;95575.00;;;38.60
30765;BMP180;494;48.744;10.106;2022-10-16T12:01:33;95262.00;;;37.50
30765;BMP180;494;48.744;10.106;2022-10-16T12:04:27;95992.00;;;36.70
30765;BMP180;494;48.744;10.106;2022-10-16T12:07:10;95997.00;;;35.40
30765;BMP180;494;48.744;10.106;2022-10-16T12:09:41;95786.00;;;37.00
30765;BMP180;494;48.744;10.106;2022-10-16T12:12:25;96078.00;;;36.70
30765;BMP180;494;48.744;10.106;2022-10-16T12:15:19;95994.00;;;39.10
30765;BMP180;494;48.744;10.106;2022-10-16T12:18:21;95685.00;;;38.30
30765;BMP180;494;48.744;10.106;2022-10-16T12:20:56;96079.00;;;39.40
30765;BMP180;494;48.744;10.106;2022-10-16T12:23:26;95705.00;;;37.10
30765;BMP180;494;48.744;10.106;2022-10-16T12:26:39;95599.00;;;34.30
30765;BMP180;494;48.744;10.106;2022-10-16T12:29:34;95572.00;;;37.30
30765;BMP180;494;48.744;10.106;2022-10-16T12:32:24;96155.00;;;38.20
30765;BMP180;494;48.744;10.106;2022-10-16T12:35:23;96121.00;;;39.70
30765;BMP180;494;48.744;10.106;2022-10-16T12:38:08;95632.00;;;40.20
30765;BMP180;494;48.744;10.106;2022-10-16T12:41:02;95809.00;;;40.50
30765;BMP180;494;48.744;10.106;2022-10-16T12:43:53;96015.00;;;38.40
30765;BMP180;494;48.744;10.106;2022-10-16T12:46:39;95409.00;;;41.30
30765;BMP180;494;48.744;10.106;2022-10-16T12:49:30;95586.00;;;40.70
30765;BMP180;494;48.744;10.106;2022-10-16T12:52:04;95941.00;;;39.60
30765;BMP180;494;48.744;10.106;2022-10-16T12:54:37;96118.00;;;41.30
30765;BMP180;494;48.744;10.106;2022-10-16T12:57:28;95726.00;;;41.90
30765;BMP180;494;48.744;10.106;2022-10-16T13:00:16;96079.00;;;41.30
30765;BMP180;494;48.744;10.106;2022-10-16T13:03:27;95736.00;;;42.10
30765;BMP180;494;48.744;10.106;2022-10-16T13:06:19;96078.00;;;40.70
30765;BMP180;494;48.744;10.106;2022-10-16T13:09:29;95626.00;;;35.40
30765;BMP180;494;48.744;10.106;2022-10-16T13:12:16;95315.00;;;35.40
30765;BMP180;494;48.744;10.106;2022-10-16T13:15:19;95525.00;;;34.30
30765;BMP180;494;48.744;10.106;2022-10-16T13:18:01;96071.00;;;32.50
30765;BMP180;494;48.744;10.106;2022-10-16T13:20:55;95784.00;;;32.20
30765;BMP180;494;48.744;10.106;2022-10-16T13:23:32;95858.00;;;32.30
30765;BMP180;494;48.744;10.106;2022-10-16T13:26:23;95246.00;;;31.10
30765;BMP180;494;48.744;10.106;2022-10-16T13:28:59;95375.00;;;33.70
30765;BMP180;494;48.744;10.106;2022-10-16T13:31:31;96066.00;;;34.80
30765;BMP180;494;48.744;10.106;2022-10-16T13:34:05;95540.00;;;34.50
30765;BMP180;494;48.744;10.106;2022-10-16T14:07:23;96099.00;;;30.70
30765;BMP180;494;48.744;10.106;2022-10-16T14:10:25;96056.00;;;34.70
30765;BMP180;494;48.744;10.106;2022-10-16T14:13:03;96055.00;;;36.40
30765;BMP180;494;48.744;10.106;2022-10-16T14:15:37;96141.00;;;36.80
30765;BMP180;494;48.744;10.106;2022-10-16T14:19:01;96029.00;;;35.40
30765;BMP180;494;48.744;10.106;2022-10-16T14:25:41;95670.00;;;36.40
30765;BMP180;494;48.744;10.106;2022-10-16T14:28:35;95630.00;;;36.30
30765;BMP180;494;48.744;10.106;2022-10-16T14:31:34;95251.00;;;37.90
30765;BMP180;494;48.744;10.106;2022-10-16T14:34:31;96031.00;;;37.20
30765;BMP180;494;48.744;10.106;2022-10-16T14:37:07;95779.00;;;36.20
30765;BMP180;494;48.744;10.106;2022-10-16T14:40:13;95631.00;;;35.60
30765;BMP180;494;48.744;10.106;2022-10-16T14:42:58;95587.00;;;34.60
30765;BMP180;494;48.744;10.106;2022-10-16T14:45:35;95854.00;;;33.80
30765;BMP180;494;48.744;10.106;2022-10-16T14:49:26;95555.00;;;32.60
30765;BMP180;494;48.744;10.106;2022-10-16T14:51:51;96078.00;;;32.10
30765;BMP180;494;48.744;10.106;2022-10-16T14:54:23;96032.00;;;32.00
30765;BMP180;494;48.744;10.106;2022-10-16T14:56:55;95955.00;;;31.30
30765;BMP180;494;48.744;10.106;2022-10-16T14:59:32;95904.00;;;30.70
30765;BMP180;494;48.744;10.106;2022-10-16T15:02:18;95953.00;;;28.30
30765;BMP180;494;48.744;10.106;2022-10-16T15:04:49;96034.00;;;27.50
30765;BMP180;494;48.744;10.106;2022-10-16T15:07:19;95306.00;;;28.00
30765;BMP180;494;48.744;10.106;2022-10-16T15:09:47;96038.00;;;27.30
30765;BMP180;494;48.744;10.106;2022-10-16T15:12:16;95882.00;;;25.90
30765;BMP180;494;48.744;10.106;2022-10-16T15:14:47;95916.00;;;26.20
30765;BMP180;494;48.744;10.106;2022-10-16T15:17:15;95354.00;;;25.80
30765;BMP180;494;48.744;10.106;2022-10-16T15:19:48;95714.00;;;24.60
30765;BMP180;494;48.744;10.106;2022-10-16T15:22:18;95792.00;;;25.10
30765;BMP180;494;48.744;10.106;2022-10-16T15:24:47;95904.00;;;25.10
30765;BMP180;494;48.744;10.106;2022-10-16T15:27:15;96043.00;;;24.80
30765;BMP180;494;48.744;10.106;2022-10-16T15:29:45;95303.00;;;24.60
30765;BMP180;494;48.744;10.106;2022-10-16T15:32:14;95975.00;;;23.80
30765;BMP180;494;48.744;10.106;2022-10-16T15:34:43;95849.00;;;22.50
30765;BMP180;494;48.744;10.106;2022-10-16T15:37:11;95945.00;;;23.30
30765;BMP180;494;48.744;10.106;2022-10-16T15:39:41;95925.00;;;24.10
30765;BMP180;494;48.744;10.106;2022-10-16T15:42:12;95660.00;;;23.70
30765;BMP180;494;48.744;10.106;2022-10-16T15:44:54;95367.00;;;23.60
30765;BMP180;494;48.744;10.106;2022-10-16T15:47:25;96264.00;;;23.70
30765;BMP180;494;48.744;10.106;2022-10-16T15:49:54;95467.00;;;22.40
30765;BMP180;494;48.744;10.106;2022-10-16T15:52:22;95865.00;;;23.50
30765;BMP180;494;48.744;10.106;2022-10-16T15:54:53;95840.00;;;21.50
30765;BMP180;494;48.744;10.106;2022-10-16T15:57:23;96053.00;;;23.10
30765;BMP180;494;48.744;10.106;2022-10-16T15:59:55;95533.00;;;23.10
30765;BMP180;494;48.744;10.106;2022-10-16T16:02:23;95928.00;;;22.70
30765;BMP180;494;48.744;10.106;2022-10-16T16:04:53;96142.00;;;22.70
30765;BMP180;494;48.744;10.106;2022-10-16T16:07:23;95735.00;;;20.30
30765;BMP180;494;48.744;10.106;2022-10-16T16:09:52;96105.00;;;22.50
30765;BMP180;494;48.744;10.106;2022-10-16T16:12:21;96086.00;;;20.00
30765;BMP180;494;48.744;10.106;2022-10-16T16:14:50;95933.00;;;21.40
30765;BMP180;494;48.744;10.106;2022-10-16T16:17:20;96018.00;;;22.00
30765;BMP180;494;48.744;10.106;2022-10-16T16:19:49;95832.00;;;20.50
30765;BMP180;494;48.744;10.106;2022-10-16T16:22:18;96112.00;;;20.10
30765;BMP180;494;48.744;10.106;2022-10-16T16:24:46;95248.00;;;22.10
30765;BMP180;494;48.744;10.106;2022-10-16T16:27:15;95553.00;;;21.80
30765;BMP180;494;48.744;10.106;2022-10-16T16:29:44;95847.00;;;21.80